Time;durP1;ratioP1;P1;durP2;ratioP2;P2;SDS_P1;SDS_P2;PMS_P1;PMS_P2;Temp;Humidity;BMP_temperature;BMP_pressure;BME280_temperature;BME280_humidity;BME280_pressure;Samples;Min_cycle;Max_cycle;Signal;HPM_P1;HPM_P2
2022/10/12 00:00:30;;;;;;;0.00;0.00;;;;;;;5.56;100.00;102583.03;10359314;28;20105;-73
2022/10/12 00:05:31;;;;;;;0.00;0.00;;;;;;;5.76;100.00;102584.59;10334143;28;20031;-73
2022/10/12 00:10:31;;;;;;;0.00;0.00;;;;;;;5.96;100.00;102582.63;10334015;28;20018;-73
2022/10/12 00:15:35;;;;;;;0.00;0.00;;;;;;;6.05;100.00;102584.75;10332563;28;20298;-73
2022/10/12 00:20:36;;;;;;;0.00;0.00;;;;;;;5.98;100.00;102583.41;10333856;28;20029;-73
2022/10/12 00:25:39;;;;;;;0.00;0.00;;;;;;;5.89;100.00;102582.09;10366048;28;20037;-73
2022/10/12 00:30:40;;;;;;;0.10;0.10;;;;;;;5.92;100.00;102583.72;10371187;28;20475;-73
2022/10/12 00:35:40;;;;;;;0.00;0.00;;;;;;;5.96;100.00;102587.91;10372937;28;20017;-73
2022/10/12 00:40:40;;;;;;;0.00;0.00;;;;;;;5.96;100.00;102577.34;10373384;28;20014;-73
2022/10/12 00:45:41;;;;;;;0.00;0.00;;;;;;;5.97;100.00;102579.06;10372690;28;20164;-74
2022/10/12 00:50:41;;;;;;;0.00;0.00;;;;;;;6.02;100.00;102584.94;10333484;28;20042;-73
2022/10/12 00:55:53;;;;;;;0.00;0.00;;;;;;;6.07;100.00;102589.03;10345436;28;20045;-73
2022/10/12 01:00:54;;;;;;;0.00;0.00;;;;;;;6.15;100.00;102583.31;10332973;28;20373;-73
2022/10/12 01:05:54;;;;;;;0.00;0.00;;;;;;;6.24;100.00;102584.56;10352950;28;20040;-73
2022/10/12 01:10:55;;;;;;;0.00;0.00;;;;;;;6.34;100.00;102576.03;10332635;28;20018;-73
2022/10/12 01:16:07;;;;;;;0.00;0.00;;;;;;;6.49;100.00;102584.00;10331483;28;20045;-73
2022/10/12 01:21:20;;;;;;;0.00;0.00;;;;;;;6.60;100.00;102578.91;10345542;22;20547;-75
2022/10/12 01:27:02;;;;;;;0.00;0.00;;;;;;;6.71;100.00;102580.94;10357707;28;20041;-75
2022/10/12 01:32:17;;;;;;;0.00;0.00;;;;;;;6.78;100.00;102577.84;10343172;28;20100;-75
2022/10/12 01:37:30;;;;;;;0.00;0.00;;;;;;;6.85;100.00;102574.81;10347921;28;20026;-75
2022/10/12 01:42:39;;;;;;;0.00;0.00;;;;;;;6.87;100.00;102570.31;10352147;28;20014;-75
2022/10/12 01:47:41;;;;;;;0.00;0.00;;;;;;;6.91;100.00;102559.41;10367847;28;20041;-75
2022/10/12 01:52:57;;;;;;;0.00;0.00;;;;;;;6.98;100.00;102552.81;10323170;28;20497;-75
2022/10/12 01:58:25;;;;;;;0.00;0.00;;;;;;;7.08;100.00;102554.88;10356458;28;20100;-75
2022/10/12 02:03:40;;;;;;;0.00;0.00;;;;;;;7.22;100.00;102555.75;10324345;28;20049;-76
2022/10/12 02:08:46;;;;;;;0.00;0.00;;;;;;;7.30;100.00;102546.44;10309817;28;20064;-75
2022/10/12 02:13:55;;;;;;;0.00;0.00;;;;;;;7.39;100.00;102540.59;10326837;28;20021;-75
2022/10/12 02:18:58;;;;;;;0.00;0.00;;;;;;;7.38;100.00;102536.22;10363538;28;20392;-75
2022/10/12 02:24:03;;;;;;;0.00;0.00;;;;;;;7.37;100.00;102534.53;10347819;28;20572;-76
2022/10/12 02:29:08;;;;;;;0.00;0.00;;;;;;;7.48;100.00;102532.06;10332059;28;20560;-76
2022/10/12 02:34:13;;;;;;;0.00;0.00;;;;;;;7.60;100.00;102531.25;10351660;28;20022;-77
2022/10/12 02:39:19;;;;;;;0.00;0.00;;;;;;;7.70;100.00;102512.94;10373877;28;20319;-77
2022/10/12 02:44:25;;;;;;;0.08;0.08;;;;;;;7.85;100.00;102524.38;10368952;28;20050;-77
2022/10/12 02:49:27;;;;;;;0.00;0.00;;;;;;;7.94;100.00;102514.03;10342721;28;20022;-76
2022/10/12 02:54:28;;;;;;;0.00;0.00;;;;;;;8.01;100.00;102508.31;10332067;28;20026;-76
2022/10/12 02:59:28;;;;;;;0.00;0.00;;;;;;;8.03;100.00;102512.56;10333570;28;20018;-76
2022/10/12 03:04:29;;;;;;;0.00;0.00;;;;;;;8.07;100.00;102508.75;10333931;28;20026;-76
2022/10/12 03:09:29;;;;;;;0.00;0.00;;;;;;;8.10;100.00;102513.84;10333152;28;20019;-76
2022/10/12 03:14:31;;;;;;;0.00;0.00;;;;;;;8.14;100.00;102504.75;10332654;28;20018;-76
2022/10/12 03:19:32;;;;;;;0.00;0.00;;;;;;;8.22;100.00;102498.06;10363979;28;20272;-76
2022/10/12 03:24:32;;;;;;;0.00;0.00;;;;;;;8.23;100.00;102505.06;10339821;28;20034;-76
2022/10/12 03:29:32;;;;;;;0.05;0.05;;;;;;;8.14;100.00;102496.78;10333044;28;20089;-76
2022/10/12 03:34:32;;;;;;;0.10;0.10;;;;;;;8.01;100.00;102501.19;10362812;28;20022;-77
2022/10/12 03:39:33;;;;;;;0.00;0.00;;;;;;;7.88;100.00;102493.19;10370592;28;20386;-77
2022/10/12 03:44:33;;;;;;;0.00;0.00;;;;;;;7.73;100.00;102502.13;10370576;28;20076;-76
2022/10/12 03:49:33;;;;;;;0.00;0.00;;;;;;;7.54;100.00;102499.84;10371494;28;20501;-76
2022/10/12 03:54:34;;;;;;;0.00;0.00;;;;;;;7.38;100.00;102493.81;10355677;28;20068;-76
2022/10/12 03:59:34;;;;;;;0.00;0.00;;;;;;;7.18;100.00;102500.34;10372193;28;20238;-76
2022/10/12 04:04:34;;;;;;;0.00;0.00;;;;;;;7.11;100.00;102502.56;10371427;28;20104;-76
2022/10/12 04:09:34;;;;;;;0.00;0.00;;;;;;;7.02;100.00;102492.53;10371461;28;20018;-76
2022/10/12 04:14:35;;;;;;;0.00;0.00;;;;;;;6.85;100.00;102503.31;10371234;28;20021;-76
2022/10/12 04:19:35;;;;;;;0.00;0.00;;;;;;;6.82;100.00;102504.34;10363957;28;20691;-76
2022/10/12 04:24:35;;;;;;;0.00;0.00;;;;;;;6.78;100.00;102505.50;10333407;28;20473;-76
2022/10/12 04:29:36;;;;;;;0.00;0.00;;;;;;;6.70;100.00;102513.03;10331172;28;20033;-76
2022/10/12 04:34:36;;;;;;;0.00;0.00;;;;;;;6.66;100.00;102504.44;10329875;28;20023;-76
2022/10/12 04:39:36;;;;;;;0.00;0.00;;;;;;;6.66;100.00;102493.84;10330149;28;20024;-76
2022/10/12 04:44:36;;;;;;;0.00;0.00;;;;;;;6.57;100.00;102494.38;10329157;28;20034;-76
2022/10/12 04:49:37;;;;;;;0.00;0.00;;;;;;;6.41;100.00;102499.75;10329844;28;20022;-76
2022/10/12 04:54:37;;;;;;;0.00;0.00;;;;;;;6.19;100.00;102497.50;10329221;28;20535;-76
2022/10/12 04:59:37;;;;;;;0.07;0.07;;;;;;;6.09;100.00;102496.34;10332741;28;20381;-76
2022/10/12 05:04:38;;;;;;;0.00;0.00;;;;;;;6.06;100.00;102494.72;10329342;28;20617;-76
2022/10/12 05:09:38;;;;;;;0.00;0.00;;;;;;;5.98;100.00;102488.19;10329009;28;20412;-76
2022/10/12 05:14:38;;;;;;;0.00;0.00;;;;;;;5.92;100.00;102486.72;10328671;28;20501;-76
2022/10/12 05:19:39;;;;;;;0.00;0.00;;;;;;;5.88;100.00;102495.78;10328651;28;20483;-75
2022/10/12 05:24:39;;;;;;;0.00;0.00;;;;;;;5.81;100.00;102494.41;10327352;28;20493;-76
2022/10/12 05:29:39;;;;;;;0.00;0.00;;;;;;;5.78;100.00;102489.28;10339644;28;20037;-76
2022/10/12 05:34:41;;;;;;;0.00;0.00;;;;;;;5.74;100.00;102480.69;10327984;28;20485;-76
2022/10/12 05:39:41;;;;;;;0.00;0.00;;;;;;;5.76;100.00;102494.69;10328162;28;20026;-75
2022/10/12 05:44:41;;;;;;;0.00;0.00;;;;;;;5.78;100.00;102492.78;10309768;28;20028;-75
2022/10/12 05:49:42;;;;;;;0.00;0.00;;;;;;;5.77;100.00;102488.44;10328470;28;20018;-75
2022/10/12 05:54:42;;;;;;;0.00;0.00;;;;;;;5.81;100.00;102495.25;10333627;28;20030;-75
2022/10/12 05:59:42;;;;;;;0.00;0.00;;;;;;;6.01;100.00;102491.50;10332824;28;20489;-75
2022/10/12 06:04:42;;;;;;;0.00;0.00;;;;;;;6.16;100.00;102499.47;10359922;28;20030;-75
2022/10/12 06:09:43;;;;;;;0.00;0.00;;;;;;;6.41;100.00;102496.25;10367066;28;20052;-75
2022/10/12 06:14:43;;;;;;;0.00;0.00;;;;;;;7.00;100.00;102495.25;10367512;28;20057;-76
2022/10/12 06:19:44;;;;;;;0.00;0.00;;;;;;;7.30;100.00;102493.44;10367275;28;20018;-76
2022/10/12 06:24:44;;;;;;;0.00;0.00;;;;;;;7.47;100.00;102496.72;10343985;28;20041;-75
2022/10/12 06:29:45;;;;;;;0.00;0.00;;;;;;;8.32;100.00;102494.69;10367317;28;20022;-75
2022/10/12 06:34:45;;;;;;;0.00;0.00;;;;;;;9.80;100.00;102489.59;10361139;28;20041;-76
2022/10/12 06:39:46;;;;;;;0.00;0.00;;;;;;;11.20;100.00;102499.28;10366748;28;20105;-76
2022/10/12 06:44:46;;;;;;;0.10;0.10;;;;;;;12.24;100.00;102501.41;10366583;28;20036;-76
2022/10/12 06:49:46;;;;;;;0.10;0.10;;;;;;;12.98;100.00;102505.81;10345518;28;20018;-76
2022/10/12 06:54:46;;;;;;;0.10;0.10;;;;;;;13.52;100.00;102504.59;10324674;28;20427;-76
2022/10/12 06:59:47;;;;;;;0.10;0.10;;;;;;;14.09;100.00;102517.38;10326000;28;20417;-76
2022/10/12 07:04:51;;;;;;;0.10;0.10;;;;;;;14.68;100.00;102529.75;10325697;28;20075;-76
2022/10/12 07:09:51;;;;;;;0.10;0.10;;;;;;;15.29;100.00;102518.50;10317075;28;20358;-77
2022/10/12 07:14:53;;;;;;;0.10;0.10;;;;;;;15.79;100.00;102520.78;10325465;28;20022;-77
2022/10/12 07:19:53;;;;;;;0.00;0.00;;;;;;;16.07;100.00;102512.66;10349880;23;20041;-72
2022/10/12 07:24:54;;;;;;;0.10;0.10;;;;;;;16.38;100.00;102521.16;10374536;28;20034;-72
2022/10/12 07:29:54;;;;;;;0.00;0.00;;;;;;;16.55;100.00;102524.81;10375005;28;20096;-72
2022/10/12 07:34:54;;;;;;;0.00;0.00;;;;;;;16.70;100.00;102519.72;10374426;28;20033;-72
2022/10/12 07:39:56;;;;;;;0.00;0.00;;;;;;;16.95;100.00;102526.94;10374285;28;20083;-72
2022/10/12 07:44:56;;;;;;;0.00;0.00;;;;;;;16.86;100.00;102527.06;10374332;28;20030;-72
2022/10/12 07:49:56;;;;;;;0.00;0.00;;;;;;;16.80;100.00;102525.00;10374489;28;20105;-72
2022/10/12 07:54:57;;;;;;;0.10;0.10;;;;;;;17.03;100.00;102520.75;10373558;28;20048;-72
2022/10/12 07:59:57;;;;;;;0.10;0.10;;;;;;;17.16;100.00;102526.56;10373539;28;20018;-72
2022/10/12 08:04:57;;;;;;;0.10;0.10;;;;;;;16.88;100.00;102531.28;10373197;28;20022;-72
2022/10/12 08:09:57;;;;;;;0.10;0.10;;;;;;;17.01;100.00;102517.38;10373566;28;20026;-72
2022/10/12 08:14:58;;;;;;;0.00;0.00;;;;;;;17.10;100.00;102531.72;10372476;28;20018;-72
2022/10/12 08:19:58;;;;;;;0.00;0.00;;;;;;;17.25;100.00;102527.44;10370765;28;20029;-72
2022/10/12 08:24:58;;;;;;;0.00;0.00;;;;;;;17.23;100.00;102531.28;10372006;28;20030;-72
2022/10/12 08:29:59;;;;;;;0.00;0.00;;;;;;;17.45;100.00;102530.69;10370803;28;20449;-72
2022/10/12 08:35:00;;;;;;;0.00;0.00;;;;;;;17.50;100.00;102535.59;10371728;28;20477;-72
2022/10/12 08:40:00;;;;;;;0.08;0.08;;;;;;;17.03;100.00;102523.44;10371591;28;20701;-72
2022/10/12 08:45:33;;;;;;;0.10;0.10;;;;;;;16.54;100.00;102523.13;10369857;28;20038;-72
2022/10/12 08:50:43;;;;;;;0.10;0.10;;;;;;;16.35;100.00;102520.59;10358702;28;20034;-72
2022/10/12 08:55:45;;;;;;;0.10;0.10;;;;;;;16.06;100.00;102517.19;10352871;28;20025;-72
2022/10/12 09:00:53;;;;;;;0.05;0.05;;;;;;;15.93;100.00;102526.63;10353164;28;20527;-72
2022/10/12 09:06:22;;;;;;;0.00;0.00;;;;;;;16.04;100.00;102512.97;10368790;28;20404;-72
2022/10/12 09:11:45;;;;;;;0.10;0.10;;;;;;;15.93;100.00;102515.88;10365599;28;20037;-72
2022/10/12 09:16:48;;;;;;;0.10;0.10;;;;;;;15.93;100.00;102518.56;10371596;28;20455;-71
2022/10/12 09:21:49;;;;;;;0.00;0.00;;;;;;;15.78;100.00;102523.63;10370812;28;20097;-72
2022/10/12 09:26:52;;;;;;;0.00;0.00;;;;;;;15.66;100.00;102517.59;10370498;28;20171;-72
2022/10/12 09:32:01;;;;;;;0.00;0.00;;;;;;;15.44;100.00;102509.94;10370091;28;20089;-72
2022/10/12 09:37:02;;;;;;;0.00;0.00;;;;;;;15.38;100.00;102506.03;10369862;28;20032;-72
2022/10/12 09:42:03;;;;;;;0.10;0.10;;;;;;;15.20;100.00;102511.34;10368911;28;20033;-72
2022/10/12 09:47:26;;;;;;;0.00;0.00;;;;;;;15.33;100.00;102503.81;10369641;28;20531;-72
2022/10/12 09:52:41;;;;;;;0.05;0.05;;;;;;;15.20;100.00;102503.31;10346402;28;20563;-74
2022/10/12 09:57:50;;;;;;;0.00;0.00;;;;;;;15.21;100.00;102501.44;10369139;28;20029;-72
2022/10/12 10:02:51;;;;;;;0.10;0.10;;;;;;;15.25;100.00;102498.34;10350370;28;20045;-72
2022/10/12 10:08:11;;;;;;;0.00;0.00;;;;;;;15.07;100.00;102494.75;10351489;28;20034;-73
2022/10/12 10:13:13;;;;;;;0.10;0.10;;;;;;;14.77;100.00;102477.91;10368378;28;20025;-72
2022/10/12 10:18:31;;;;;;;0.00;0.00;;;;;;;14.83;100.00;102479.16;10350678;28;20018;-72
2022/10/12 10:23:54;;;;;;;0.00;0.00;;;;;;;14.77;100.00;102485.13;10365406;28;20053;-72
2022/10/12 10:29:13;;;;;;;0.10;0.10;;;;;;;14.74;100.00;102478.19;10364936;28;20025;-72
2022/10/12 10:34:16;;;;;;;0.03;0.03;;;;;;;14.62;100.00;102484.75;10368131;28;20080;-72
2022/10/12 10:39:26;;;;;;;0.10;0.10;;;;;;;14.62;100.00;102471.31;10368060;28;20053;-74
2022/10/12 10:44:32;;;;;;;0.10;0.10;;;;;;;14.60;100.00;102458.09;10365400;28;20338;-74
2022/10/12 10:49:41;;;;;;;0.10;0.10;;;;;;;14.49;100.00;102466.25;10350307;28;20025;-74
2022/10/12 10:54:41;;;;;;;0.10;0.10;;;;;;;14.42;100.00;102449.03;10372999;28;20060;-74
2022/10/12 10:59:52;;;;;;;0.10;0.10;;;;;;;14.39;100.00;102443.97;10375237;28;20053;-74
2022/10/12 11:05:04;;;;;;;0.10;0.10;;;;;;;14.40;100.00;102443.84;10375273;28;20032;-74
2022/10/12 11:10:33;;;;;;;0.10;0.10;;;;;;;14.40;100.00;102441.16;10375423;28;20057;-73
2022/10/12 11:15:43;;;;;;;0.10;0.10;;;;;;;14.42;100.00;102433.81;10374114;28;20037;-73
2022/10/12 11:20:53;;;;;;;0.40;0.20;;;;;;;14.47;100.00;102430.69;10374376;28;20121;-74
2022/10/12 11:26:09;;;;;;;0.10;0.10;;;;;;;14.54;100.00;102420.25;10371872;28;20236;-74
2022/10/12 11:31:20;;;;;;;0.10;0.10;;;;;;;14.59;100.00;102413.47;10373867;28;20021;-73
2022/10/12 11:36:24;;;;;;;0.10;0.10;;;;;;;14.60;100.00;102415.19;10356621;28;20026;-73
2022/10/12 11:41:34;;;;;;;;;;;;;;;14.69;100.00;102413.44;10356579;28;20026;-73
2022/10/12 11:46:39;;;;;;;0.10;0.10;;;;;;;14.75;100.00;102399.44;10374675;28;19913;-73
2022/10/12 11:51:45;;;;;;;0.00;0.00;;;;;;;14.80;100.00;102394.44;10373709;28;20025;-73
2022/10/12 11:56:51;;;;;;;0.00;0.00;;;;;;;14.71;100.00;102379.25;10367387;28;20061;-73
2022/10/12 12:02:16;;;;;;;0.00;0.00;;;;;;;14.68;100.00;102369.66;10373098;28;20076;-73
2022/10/12 12:07:41;;;;;;;0.10;0.10;;;;;;;14.68;100.00;102369.66;10372456;28;20025;-73
2022/10/12 12:13:11;;;;;;;0.10;0.10;;;;;;;14.67;100.00;102359.94;10351235;28;20030;-73
2022/10/12 12:18:13;;;;;;;0.10;0.10;;;;;;;14.68;100.00;102353.56;10372491;28;20026;-73
2022/10/12 12:23:39;;;;;;;0.00;0.00;;;;;;;14.69;100.00;102349.91;10343982;28;20037;-73
2022/10/12 12:28:42;;;;;;;0.00;0.00;;;;;;;14.69;100.00;102357.13;10362522;28;20042;-73
2022/10/12 12:33:47;;;;;;;0.10;0.10;;;;;;;14.76;100.00;102352.00;10371465;28;20014;-73
2022/10/12 12:38:50;;;;;;;0.10;0.10;;;;;;;14.79;100.00;102344.50;10353973;28;20040;-73
2022/10/12 12:43:55;;;;;;;0.00;0.00;;;;;;;14.80;100.00;102340.81;10350172;28;20562;-73
2022/10/12 12:48:56;;;;;;;0.10;0.10;;;;;;;14.80;100.00;102337.28;10370908;28;20025;-73
2022/10/12 12:54:17;;;;;;;0.10;0.10;;;;;;;14.81;100.00;102326.41;10370654;28;20022;-73
2022/10/12 12:59:52;;;;;;;0.10;0.10;;;;;;;14.73;100.00;102329.00;10353210;28;20053;-73
2022/10/12 13:05:11;;;;;;;0.08;0.08;;;;;;;14.72;100.00;102316.59;10366445;28;20105;-73
2022/10/12 13:10:31;;;;;;;0.00;0.00;;;;;;;14.73;100.00;102310.22;10352643;28;20022;-73
2022/10/12 13:15:37;;;;;;;0.10;0.10;;;;;;;14.63;100.00;102312.97;10368227;28;20030;-73
2022/10/12 13:20:38;;;;;;;0.10;0.10;;;;;;;14.54;100.00;102287.03;10367381;23;20029;-76
2022/10/12 13:25:53;;;;;;;0.03;0.03;;;;;;;14.63;100.00;102307.59;10408690;28;20030;-76
2022/10/12 13:31:18;;;;;;;0.00;0.00;;;;;;;14.67;100.00;102310.84;10392110;28;20021;-76
2022/10/12 13:36:23;;;;;;;0.00;0.00;;;;;;;14.65;100.00;102299.41;10409799;28;20124;-76
2022/10/12 13:41:29;;;;;;;0.10;0.10;;;;;;;14.60;100.00;102301.69;10408298;28;20048;-76
2022/10/12 13:46:36;;;;;;;0.10;0.10;;;;;;;14.64;100.00;102293.19;10409616;28;20395;-76
2022/10/12 13:51:37;;;;;;;0.10;0.10;;;;;;;14.61;100.00;102285.44;10388450;28;20060;-75
2022/10/12 13:56:38;;;;;;;0.10;0.10;;;;;;;14.57;100.00;102289.41;10407288;28;20466;-75
2022/10/12 14:01:59;;;;;;;0.10;0.10;;;;;;;14.54;100.00;102288.88;10406333;28;20021;-75
2022/10/12 14:07:03;;;;;;;0.10;0.10;;;;;;;14.55;100.00;102277.19;10408905;28;20039;-75
2022/10/12 14:12:03;;;;;;;0.10;0.10;;;;;;;14.49;100.00;102266.03;10407656;28;20024;-76
2022/10/12 14:17:04;;;;;;;0.10;0.10;;;;;;;14.42;100.00;102256.88;10408583;28;20040;-76
2022/10/12 14:22:05;;;;;;;0.00;0.00;;;;;;;14.37;100.00;102251.13;10406678;28;20021;-76
2022/10/12 14:27:07;;;;;;;0.10;0.10;;;;;;;14.34;100.00;102234.47;10412338;28;20025;-76
2022/10/12 14:32:36;;;;;;;0.10;0.10;;;;;;;14.24;100.00;102239.91;10398517;28;20383;-76
2022/10/12 14:37:36;;;;;;;0.10;0.10;;;;;;;14.13;100.00;102240.09;10416950;28;20052;-76
2022/10/12 14:42:36;;;;;;;0.00;0.00;;;;;;;14.06;100.00;102223.78;10415368;28;20053;-75
2022/10/12 14:47:38;;;;;;;0.08;0.08;;;;;;;13.98;100.00;102216.47;10416364;28;20032;-75
2022/10/12 14:52:43;;;;;;;0.00;0.00;;;;;;;13.92;100.00;102213.53;10414242;28;20021;-76
2022/10/12 14:57:44;;;;;;;0.00;0.00;;;;;;;13.86;100.00;102211.47;10397934;28;20456;-73
2022/10/12 15:02:45;;;;;;;0.00;0.00;;;;;;;13.77;100.00;102199.78;10415007;28;20375;-74
2022/10/12 15:07:46;;;;;;;0.10;0.10;;;;;;;13.73;100.00;102211.75;10415043;28;20029;-73
2022/10/12 15:12:47;;;;;;;0.10;0.10;;;;;;;13.60;100.00;102198.72;10396494;28;20079;-74
2022/10/12 15:17:47;;;;;;;0.10;0.10;;;;;;;13.50;100.00;102196.06;10416341;28;20026;-74
2022/10/12 15:22:47;;;;;;;0.10;0.10;;;;;;;13.46;100.00;102189.31;10413096;28;20476;-74
2022/10/12 15:27:48;;;;;;;0.00;0.00;;;;;;;13.41;100.00;102174.66;10414032;28;20037;-75
2022/10/12 15:32:48;;;;;;;0.10;0.10;;;;;;;13.30;100.00;102162.31;10413945;28;20445;-75
2022/10/12 15:37:49;;;;;;;0.10;0.10;;;;;;;13.17;100.00;102169.75;10413437;28;20021;-75
2022/10/12 15:42:49;;;;;;;0.10;0.10;;;;;;;13.07;100.00;102159.91;10412156;28;20021;-74
2022/10/12 15:47:51;;;;;;;0.10;0.10;;;;;;;12.94;100.00;102155.84;10413911;28;20045;-75
2022/10/12 15:52:52;;;;;;;0.10;0.10;;;;;;;12.75;100.00;102143.34;10411909;28;20031;-74
2022/10/12 15:57:53;;;;;;;0.10;0.10;;;;;;;12.58;100.00;102156.41;10390651;28;20029;-75
2022/10/12 16:02:55;;;;;;;0.10;0.10;;;;;;;12.42;100.00;102146.28;10412500;28;20104;-75
2022/10/12 16:07:57;;;;;;;0.10;0.10;;;;;;;12.30;100.00;102150.03;10413352;28;20025;-74
2022/10/12 16:12:57;;;;;;;0.10;0.10;;;;;;;12.09;100.00;102150.16;10412201;28;20021;-75
2022/10/12 16:18:00;;;;;;;0.10;0.10;;;;;;;11.87;100.00;102139.69;10411349;28;20021;-75
2022/10/12 16:23:00;;;;;;;0.10;0.10;;;;;;;11.69;100.00;102145.66;10410839;28;20124;-75
2022/10/12 16:28:00;;;;;;;0.10;0.10;;;;;;;11.55;100.00;102144.19;10411947;28;20105;-75
2022/10/12 16:33:01;;;;;;;0.10;0.10;;;;;;;11.41;100.00;102133.03;10394027;28;20369;-74
2022/10/12 16:38:01;;;;;;;0.10;0.10;;;;;;;11.27;100.00;102132.38;10412130;28;20029;-74
2022/10/12 16:43:01;;;;;;;0.10;0.10;;;;;;;11.11;100.00;102139.97;10411396;28;20439;-74
2022/10/12 16:48:02;;;;;;;0.10;0.10;;;;;;;10.83;100.00;102134.34;10411562;28;20371;-75
2022/10/12 16:53:03;;;;;;;0.10;0.10;;;;;;;10.54;100.00;102138.59;10409486;28;20022;-75
2022/10/12 16:58:03;;;;;;;0.10;0.10;;;;;;;10.31;100.00;102151.13;10394115;28;20027;-74
2022/10/12 17:03:03;;;;;;;0.10;0.10;;;;;;;10.04;100.00;102131.06;10410170;28;20323;-74
2022/10/12 17:08:04;;;;;;;0.10;0.10;;;;;;;9.80;100.00;102133.84;10410651;28;20096;-74
2022/10/12 17:13:04;;;;;;;0.10;0.10;;;;;;;9.72;100.00;102137.16;10409962;28;20471;-75
2022/10/12 17:18:05;;;;;;;0.10;0.10;;;;;;;9.51;100.00;102147.66;10410706;28;20457;-75
2022/10/12 17:23:05;;;;;;;0.10;0.10;;;;;;;9.21;100.00;102150.03;10408493;28;20022;-75
2022/10/12 17:28:05;;;;;;;0.10;0.10;;;;;;;8.89;100.00;102150.66;10410158;28;20287;-74
2022/10/12 17:33:05;;;;;;;0.00;0.00;;;;;;;8.75;100.00;102153.50;10410040;28;20026;-74
2022/10/12 17:38:06;;;;;;;0.10;0.10;;;;;;;8.61;100.00;102147.44;10409505;28;20022;-75
2022/10/12 17:43:06;;;;;;;0.00;0.00;;;;;;;8.48;100.00;102132.53;10408839;28;20060;-74
2022/10/12 17:48:06;;;;;;;0.10;0.10;;;;;;;8.46;100.00;102137.09;10409579;28;20025;-75
2022/10/12 17:53:07;;;;;;;0.00;0.00;;;;;;;8.50;100.00;102135.91;10389926;28;20028;-75
2022/10/12 17:58:07;;;;;;;0.10;0.10;;;;;;;8.44;100.00;102136.38;10408800;28;20025;-74
2022/10/12 18:03:07;;;;;;;0.00;0.00;;;;;;;8.34;100.00;102139.66;10407809;28;20279;-74
2022/10/12 18:08:07;;;;;;;0.00;0.00;;;;;;;8.16;100.00;102128.56;10409133;28;20037;-75
2022/10/12 18:13:08;;;;;;;0.10;0.10;;;;;;;8.02;100.00;102123.41;10407773;28;20257;-74
2022/10/12 18:18:08;;;;;;;0.05;0.05;;;;;;;7.97;100.00;102136.19;10390564;28;20021;-75
2022/10/12 18:23:09;;;;;;;0.00;0.00;;;;;;;7.94;100.00;102123.97;10409768;28;20021;-75
2022/10/12 18:28:10;;;;;;;0.10;0.10;;;;;;;7.69;100.00;102122.22;10408347;28;20326;-74
2022/10/12 18:33:11;;;;;;;0.00;0.00;;;;;;;7.49;100.00;102122.78;10407263;28;20029;-74
2022/10/12 18:38:11;;;;;;;0.00;0.00;;;;;;;7.41;100.00;102125.97;10407938;28;20437;-74
2022/10/12 18:43:11;;;;;;;0.10;0.10;;;;;;;7.22;100.00;102120.25;10406946;28;20276;-75
2022/10/12 18:48:12;;;;;;;0.00;0.00;;;;;;;7.00;100.00;102116.41;10408046;28;20087;-75
2022/10/12 18:53:12;;;;;;;0.00;0.00;;;;;;;6.84;100.00;102106.97;10404804;28;20465;-74
2022/10/12 18:58:13;;;;;;;0.00;0.00;;;;;;;6.85;100.00;102103.38;10407720;28;20365;-74
2022/10/12 19:03:13;;;;;;;0.00;0.00;;;;;;;6.92;100.00;102094.03;10406921;28;20018;-75
2022/10/12 19:08:13;;;;;;;0.00;0.00;;;;;;;6.79;100.00;102104.63;10407814;28;20029;-74
2022/10/12 19:13:13;;;;;;;0.00;0.00;;;;;;;6.64;100.00;102106.50;10409444;28;20252;-74
2022/10/12 19:18:14;;;;;;;0.00;0.00;;;;;;;6.47;100.00;102090.88;10415515;28;20037;-74
2022/10/12 19:23:16;;;;;;;0.00;0.00;;;;;;;6.49;100.00;102089.84;10446739;22;20041;-72
2022/10/12 19:28:16;;;;;;;0.00;0.00;;;;;;;6.49;100.00;102102.22;10438466;28;20021;-73
2022/10/12 19:33:17;;;;;;;0.10;0.10;;;;;;;6.41;100.00;102088.66;10447389;28;20020;-73
2022/10/12 19:38:17;;;;;;;0.00;0.00;;;;;;;6.33;100.00;102071.47;10433806;28;20476;-73
2022/10/12 19:43:17;;;;;;;0.00;0.00;;;;;;;6.29;100.00;102074.44;10422314;28;20495;-73
2022/10/12 19:48:18;;;;;;;0.00;0.00;;;;;;;6.30;100.00;102073.47;10436082;28;20024;-73
2022/10/12 19:53:18;;;;;;;0.00;0.00;;;;;;;6.40;100.00;102079.88;10436811;28;20029;-73
2022/10/12 19:58:18;;;;;;;0.00;0.00;;;;;;;6.58;100.00;102070.69;10428086;28;20021;-73
2022/10/12 20:03:18;;;;;;;0.10;0.10;;;;;;;6.89;100.00;102054.53;10423913;28;20025;-73
2022/10/12 20:08:19;;;;;;;0.00;0.00;;;;;;;7.29;100.00;102057.06;10424984;28;20032;-73
2022/10/12 20:13:19;;;;;;;0.00;0.00;;;;;;;7.46;100.00;102056.72;10436903;28;20017;-73
2022/10/12 20:18:20;;;;;;;0.00;0.00;;;;;;;7.54;100.00;102054.38;10432969;28;20268;-72
2022/10/12 20:23:21;;;;;;;0.00;0.00;;;;;;;7.56;100.00;102060.41;10430814;28;20121;-72
2022/10/12 20:28:21;;;;;;;0.10;0.10;;;;;;;7.59;100.00;102049.59;10427051;28;20037;-73
2022/10/12 20:33:22;;;;;;;0.00;0.00;;;;;;;7.63;100.00;102053.72;10425143;28;21159;-72
2022/10/12 20:38:22;;;;;;;0.00;0.00;;;;;;;7.65;100.00;102049.16;10420571;28;20376;-74
2022/10/12 20:43:22;;;;;;;0.10;0.10;;;;;;;7.71;100.00;102037.25;10430772;28;20496;-75
2022/10/12 20:48:22;;;;;;;0.00;0.00;;;;;;;7.72;100.00;102025.69;10444709;28;20096;-75
2022/10/12 20:53:23;;;;;;;0.10;0.10;;;;;;;7.74;100.00;102022.91;10433090;28;20108;-75
2022/10/12 20:58:23;;;;;;;0.00;0.00;;;;;;;7.71;100.00;102024.00;10425530;28;20271;-74
2022/10/12 21:03:23;;;;;;;0.00;0.00;;;;;;;7.70;100.00;102041.69;10424009;28;20013;-74
2022/10/12 21:08:24;;;;;;;0.00;0.00;;;;;;;7.69;100.00;102041.81;10441287;28;20047;-74
2022/10/12 21:13:24;;;;;;;0.00;0.00;;;;;;;7.65;100.00;102037.69;10431672;28;20022;-74
2022/10/12 21:18:25;;;;;;;0.00;0.00;;;;;;;7.62;100.00;102030.81;10421677;28;20407;-74
2022/10/12 21:23:26;;;;;;;0.00;0.00;;;;;;;7.64;100.00;102028.03;10428370;28;20820;-74
2022/10/12 21:28:26;;;;;;;0.00;0.00;;;;;;;7.67;100.00;102027.81;10440160;28;20487;-74
2022/10/12 21:33:27;;;;;;;0.00;0.00;;;;;;;7.67;100.00;102031.31;10434291;28;20016;-74
2022/10/12 21:38:29;;;;;;;0.00;0.00;;;;;;;7.65;100.00;102022.63;10416646;28;20277;-74
2022/10/12 21:43:29;;;;;;;0.00;0.00;;;;;;;7.70;100.00;102014.31;10421493;28;20287;-75
2022/10/12 21:48:31;;;;;;;0.00;0.00;;;;;;;7.70;100.00;102006.38;10413939;28;20017;-74
2022/10/12 21:53:33;;;;;;;0.00;0.00;;;;;;;7.68;100.00;102006.50;10416211;28;20086;-74
2022/10/12 21:58:34;;;;;;;0.00;0.00;;;;;;;7.59;100.00;102017.78;10425616;28;20023;-74
2022/10/12 22:03:34;;;;;;;0.00;0.00;;;;;;;7.44;100.00;102013.56;10435578;28;20092;-74
2022/10/12 22:08:35;;;;;;;0.00;0.00;;;;;;;7.28;100.00;102008.50;10429256;28;20429;-74
2022/10/12 22:13:35;;;;;;;0.00;0.00;;;;;;;7.20;100.00;101995.78;10442445;28;20251;-74
2022/10/12 22:18:36;;;;;;;0.00;0.00;;;;;;;7.24;100.00;101994.63;10423037;28;20463;-74
2022/10/12 22:23:36;;;;;;;0.00;0.00;;;;;;;7.25;100.00;102000.78;10427987;28;20030;-74
2022/10/12 22:28:37;;;;;;;0.00;0.00;;;;;;;7.28;100.00;101991.78;10432678;28;20025;-74
2022/10/12 22:33:37;;;;;;;0.00;0.00;;;;;;;7.29;100.00;101993.44;10427441;28;20375;-74
2022/10/12 22:38:38;;;;;;;0.00;0.00;;;;;;;7.29;100.00;101982.84;10419147;28;20516;-74
2022/10/12 22:43:38;;;;;;;0.00;0.00;;;;;;;7.29;100.00;101988.16;10428673;28;20017;-74
2022/10/12 22:48:39;;;;;;;0.00;0.00;;;;;;;7.35;100.00;101977.09;10430498;28;20037;-74
2022/10/12 22:53:39;;;;;;;0.00;0.00;;;;;;;7.41;100.00;101968.72;10428402;28;20017;-74
2022/10/12 22:58:39;;;;;;;0.00;0.00;;;;;;;7.44;100.00;101977.28;10451826;28;20593;-74
2022/10/12 23:03:40;;;;;;;0.00;0.00;;;;;;;7.53;100.00;101964.31;10422898;28;20364;-74
2022/10/12 23:08:40;;;;;;;0.00;0.00;;;;;;;7.53;100.00;101957.22;10418867;28;20113;-74